sensor_id;sensor_type;location;lat;lon;timestamp;P1;durP1;ratioP1;P2;durP2;ratioP2
54561;SDS011;40456;53.358;-1.486;2022-07-23T00:00:06;0.50;;;0.30;;
54561;SDS011;40456;53.358;-1.486;2022-07-23T00:02:33;0.30;;;0.22;;
54561;SDS011;40456;53.358;-1.486;2022-07-23T00:04:58;0.52;;;0.30;;
54561;SDS011;40456;53.358;-1.486;2022-07-23T00:07:24;0.38;;;0.30;;
54561;SDS011;40456;53.358;-1.486;2022-07-23T00:09:49;0.75;;;0.57;;
54561;SDS011;40456;53.358;-1.486;2022-07-23T00:12:14;1.20;;;0.40;;
54561;SDS011;40456;53.358;-1.486;2022-07-23T00:14:40;1.65;;;0.60;;
54561;SDS011;40456;53.358;-1.486;2022-07-23T00:17:06;0.35;;;0.20;;
54561;SDS011;40456;53.358;-1.486;2022-07-23T00:19:32;0.40;;;0.40;;
54561;SDS011;40456;53.358;-1.486;2022-07-23T00:21:57;0.45;;;0.40;;
54561;SDS011;40456;53.358;-1.486;2022-07-23T00:24:23;0.75;;;0.35;;
54561;SDS011;40456;53.358;-1.486;2022-07-23T00:26:48;2.17;;;0.60;;
54561;SDS011;40456;53.358;-1.486;2022-07-23T00:29:14;0.95;;;0.57;;
54561;SDS011;40456;53.358;-1.486;2022-07-23T00:31:39;0.75;;;0.38;;
54561;SDS011;40456;53.358;-1.486;2022-07-23T00:34:04;1.17;;;0.40;;
54561;SDS011;40456;53.358;-1.486;2022-07-23T00:36:30;0.68;;;0.30;;
54561;SDS011;40456;53.358;-1.486;2022-07-23T00:38:56;0.93;;;0.55;;
54561;SDS011;40456;53.358;-1.486;2022-07-23T00:41:22;0.63;;;0.40;;
54561;SDS011;40456;53.358;-1.486;2022-07-23T00:43:47;0.90;;;0.45;;
54561;SDS011;40456;53.358;-1.486;2022-07-23T00:46:13;0.90;;;0.50;;
54561;SDS011;40456;53.358;-1.486;2022-07-23T00:48:38;1.50;;;0.35;;
54561;SDS011;40456;53.358;-1.486;2022-07-23T00:51:03;0.22;;;0.22;;
54561;SDS011;40456;53.358;-1.486;2022-07-23T00:53:29;0.95;;;0.40;;
54561;SDS011;40456;53.358;-1.486;2022-07-23T00:55:56;0.40;;;0.40;;
54561;SDS011;40456;53.358;-1.486;2022-07-23T00:58:23;0.50;;;0.30;;
54561;SDS011;40456;53.358;-1.486;2022-07-23T01:00:48;0.32;;;0.30;;
54561;SDS011;40456;53.358;-1.486;2022-07-23T01:03:14;0.30;;;0.30;;
54561;SDS011;40456;53.358;-1.486;2022-07-23T01:05:39;0.68;;;0.40;;
54561;SDS011;40456;53.358;-1.486;2022-07-23T01:08:05;1.08;;;0.60;;
54561;SDS011;40456;53.358;-1.486;2022-07-23T01:10:31;0.43;;;0.38;;
54561;SDS011;40456;53.358;-1.486;2022-07-23T01:12:57;0.30;;;0.30;;
54561;SDS011;40456;53.358;-1.486;2022-07-23T01:15:32;0.30;;;0.22;;
54561;SDS011;40456;53.358;-1.486;2022-07-23T01:17:59;1.15;;;0.40;;
54561;SDS011;40456;53.358;-1.486;2022-07-23T01:20:25;0.57;;;0.40;;
54561;SDS011;40456;53.358;-1.486;2022-07-23T01:22:51;1.33;;;0.45;;
54561;SDS011;40456;53.358;-1.486;2022-07-23T01:25:17;0.40;;;0.40;;
54561;SDS011;40456;53.358;-1.486;2022-07-23T01:27:43;0.35;;;0.30;;
54561;SDS011;40456;53.358;-1.486;2022-07-23T01:30:09;0.50;;;0.47;;
54561;SDS011;40456;53.358;-1.486;2022-07-23T01:32:35;0.32;;;0.30;;
54561;SDS011;40456;53.358;-1.486;2022-07-23T01:35:00;0.60;;;0.60;;
54561;SDS011;40456;53.358;-1.486;2022-07-23T01:37:26;0.50;;;0.30;;
54561;SDS011;40456;53.358;-1.486;2022-07-23T01:39:51;0.93;;;0.60;;
54561;SDS011;40456;53.358;-1.486;2022-07-23T01:42:16;1.05;;;0.50;;
54561;SDS011;40456;53.358;-1.486;2022-07-23T01:44:42;0.85;;;0.45;;
54561;SDS011;40456;53.358;-1.486;2022-07-23T01:47:07;0.35;;;0.35;;
54561;SDS011;40456;53.358;-1.486;2022-07-23T01:49:33;1.70;;;0.40;;
54561;SDS011;40456;53.358;-1.486;2022-07-23T01:51:58;1.17;;;0.50;;
54561;SDS011;40456;53.358;-1.486;2022-07-23T01:54:27;2.97;;;0.95;;
54561;SDS011;40456;53.358;-1.486;2022-07-23T01:56:54;0.50;;;0.47;;
54561;SDS011;40456;53.358;-1.486;2022-07-23T01:59:20;0.43;;;0.40;;
54561;SDS011;40456;53.358;-1.486;2022-07-23T02:01:46;0.30;;;0.30;;
54561;SDS011;40456;53.358;-1.486;2022-07-23T02:04:11;0.50;;;0.43;;
54561;SDS011;40456;53.358;-1.486;2022-07-23T02:06:37;0.57;;;0.50;;
54561;SDS011;40456;53.358;-1.486;2022-07-23T02:09:02;0.52;;;0.25;;
54561;SDS011;40456;53.358;-1.486;2022-07-23T02:11:27;0.38;;;0.38;;
54561;SDS011;40456;53.358;-1.486;2022-07-23T02:13:53;0.40;;;0.40;;
54561;SDS011;40456;53.358;-1.486;2022-07-23T02:16:18;1.17;;;0.40;;
54561;SDS011;40456;53.358;-1.486;2022-07-23T02:18:44;0.40;;;0.40;;
54561;SDS011;40456;53.358;-1.486;2022-07-23T02:21:11;1.00;;;0.70;;
54561;SDS011;40456;53.358;-1.486;2022-07-23T02:23:36;1.05;;;0.57;;
54561;SDS011;40456;53.358;-1.486;2022-07-23T02:26:01;0.77;;;0.40;;
54561;SDS011;40456;53.358;-1.486;2022-07-23T02:28:27;0.45;;;0.40;;
54561;SDS011;40456;53.358;-1.486;2022-07-23T02:30:52;0.43;;;0.38;;
54561;SDS011;40456;53.358;-1.486;2022-07-23T02:33:18;0.43;;;0.43;;
54561;SDS011;40456;53.358;-1.486;2022-07-23T02:35:43;0.40;;;0.40;;
54561;SDS011;40456;53.358;-1.486;2022-07-23T02:38:09;0.73;;;0.50;;
54561;SDS011;40456;53.358;-1.486;2022-07-23T02:40:34;0.47;;;0.47;;
54561;SDS011;40456;53.358;-1.486;2022-07-23T02:42:59;3.10;;;0.40;;
54561;SDS011;40456;53.358;-1.486;2022-07-23T02:45:25;0.38;;;0.38;;
54561;SDS011;40456;53.358;-1.486;2022-07-23T02:47:50;0.57;;;0.40;;
54561;SDS011;40456;53.358;-1.486;2022-07-23T02:50:16;1.23;;;0.70;;
54561;SDS011;40456;53.358;-1.486;2022-07-23T02:52:41;0.55;;;0.45;;
54561;SDS011;40456;53.358;-1.486;2022-07-23T02:55:07;0.82;;;0.50;;
54561;SDS011;40456;53.358;-1.486;2022-07-23T02:57:32;0.45;;;0.45;;
54561;SDS011;40456;53.358;-1.486;2022-07-23T02:59:58;1.88;;;0.60;;
54561;SDS011;40456;53.358;-1.486;2022-07-23T03:02:23;0.75;;;0.40;;
54561;SDS011;40456;53.358;-1.486;2022-07-23T03:04:49;0.73;;;0.50;;
54561;SDS011;40456;53.358;-1.486;2022-07-23T03:07:15;1.48;;;0.70;;
54561;SDS011;40456;53.358;-1.486;2022-07-23T03:09:41;1.52;;;0.35;;
54561;SDS011;40456;53.358;-1.486;2022-07-23T03:12:07;0.50;;;0.40;;
54561;SDS011;40456;53.358;-1.486;2022-07-23T03:14:33;0.40;;;0.40;;
54561;SDS011;40456;53.358;-1.486;2022-07-23T03:16:58;0.40;;;0.40;;
54561;SDS011;40456;53.358;-1.486;2022-07-23T03:19:24;1.33;;;0.32;;
54561;SDS011;40456;53.358;-1.486;2022-07-23T03:21:50;0.40;;;0.40;;
54561;SDS011;40456;53.358;-1.486;2022-07-23T03:24:16;1.10;;;0.32;;
54561;SDS011;40456;53.358;-1.486;2022-07-23T03:26:43;0.52;;;0.38;;
54561;SDS011;40456;53.358;-1.486;2022-07-23T03:29:08;0.57;;;0.57;;
54561;SDS011;40456;53.358;-1.486;2022-07-23T03:31:34;2.22;;;0.50;;
54561;SDS011;40456;53.358;-1.486;2022-07-23T03:33:59;0.70;;;0.70;;
54561;SDS011;40456;53.358;-1.486;2022-07-23T03:36:25;0.50;;;0.50;;
54561;SDS011;40456;53.358;-1.486;2022-07-23T03:38:51;0.73;;;0.38;;
54561;SDS011;40456;53.358;-1.486;2022-07-23T03:41:17;0.65;;;0.50;;
54561;SDS011;40456;53.358;-1.486;2022-07-23T03:43:43;0.55;;;0.43;;
54561;SDS011;40456;53.358;-1.486;2022-07-23T03:46:08;0.73;;;0.50;;
54561;SDS011;40456;53.358;-1.486;2022-07-23T03:48:34;0.75;;;0.70;;
54561;SDS011;40456;53.358;-1.486;2022-07-23T03:51:00;1.17;;;0.60;;
54561;SDS011;40456;53.358;-1.486;2022-07-23T03:53:25;0.70;;;0.70;;
54561;SDS011;40456;53.358;-1.486;2022-07-23T03:55:51;0.65;;;0.50;;
54561;SDS011;40456;53.358;-1.486;2022-07-23T03:58:16;0.63;;;0.63;;
54561;SDS011;40456;53.358;-1.486;2022-07-23T04:00:42;1.23;;;0.70;;
54561;SDS011;40456;53.358;-1.486;2022-07-23T04:03:07;0.90;;;0.60;;
54561;SDS011;40456;53.358;-1.486;2022-07-23T04:05:33;0.95;;;0.73;;
54561;SDS011;40456;53.358;-1.486;2022-07-23T04:07:58;0.50;;;0.50;;
54561;SDS011;40456;53.358;-1.486;2022-07-23T04:10:24;0.70;;;0.50;;
54561;SDS011;40456;53.358;-1.486;2022-07-23T04:12:49;0.90;;;0.60;;
54561;SDS011;40456;53.358;-1.486;2022-07-23T04:15:15;0.63;;;0.45;;
54561;SDS011;40456;53.358;-1.486;2022-07-23T04:17:40;1.08;;;0.70;;
54561;SDS011;40456;53.358;-1.486;2022-07-23T04:20:06;0.68;;;0.60;;
54561;SDS011;40456;53.358;-1.486;2022-07-23T04:22:31;1.13;;;0.50;;
54561;SDS011;40456;53.358;-1.486;2022-07-23T04:24:57;0.50;;;0.40;;
54561;SDS011;40456;53.358;-1.486;2022-07-23T04:27:22;0.88;;;0.47;;
54561;SDS011;40456;53.358;-1.486;2022-07-23T04:29:47;0.73;;;0.52;;
54561;SDS011;40456;53.358;-1.486;2022-07-23T04:32:13;0.98;;;0.70;;
54561;SDS011;40456;53.358;-1.486;2022-07-23T04:34:38;0.88;;;0.60;;
54561;SDS011;40456;53.358;-1.486;2022-07-23T04:37:04;1.27;;;0.82;;
54561;SDS011;40456;53.358;-1.486;2022-07-23T04:39:29;1.33;;;0.70;;
54561;SDS011;40456;53.358;-1.486;2022-07-23T04:41:55;1.40;;;0.50;;
54561;SDS011;40456;53.358;-1.486;2022-07-23T04:44:21;0.70;;;0.50;;
54561;SDS011;40456;53.358;-1.486;2022-07-23T04:46:46;0.80;;;0.75;;
54561;SDS011;40456;53.358;-1.486;2022-07-23T04:49:11;1.73;;;0.70;;
54561;SDS011;40456;53.358;-1.486;2022-07-23T04:51:37;0.50;;;0.50;;
54561;SDS011;40456;53.358;-1.486;2022-07-23T04:54:02;1.23;;;0.80;;
54561;SDS011;40456;53.358;-1.486;2022-07-23T04:56:28;0.75;;;0.70;;
54561;SDS011;40456;53.358;-1.486;2022-07-23T04:58:53;2.03;;;1.00;;
54561;SDS011;40456;53.358;-1.486;2022-07-23T05:01:19;2.65;;;1.10;;
54561;SDS011;40456;53.358;-1.486;2022-07-23T05:03:44;1.02;;;0.77;;
54561;SDS011;40456;53.358;-1.486;2022-07-23T05:06:10;0.60;;;0.60;;
54561;SDS011;40456;53.358;-1.486;2022-07-23T05:08:35;0.70;;;0.63;;
54561;SDS011;40456;53.358;-1.486;2022-07-23T05:11:00;0.88;;;0.70;;
54561;SDS011;40456;53.358;-1.486;2022-07-23T05:13:26;1.52;;;0.60;;
54561;SDS011;40456;53.358;-1.486;2022-07-23T05:15:51;1.42;;;0.70;;
54561;SDS011;40456;53.358;-1.486;2022-07-23T05:18:17;1.20;;;0.98;;
54561;SDS011;40456;53.358;-1.486;2022-07-23T05:20:42;1.10;;;0.90;;
54561;SDS011;40456;53.358;-1.486;2022-07-23T05:23:08;2.03;;;1.10;;
54561;SDS011;40456;53.358;-1.486;2022-07-23T05:25:33;1.77;;;1.15;;
54561;SDS011;40456;53.358;-1.486;2022-07-23T05:27:58;1.38;;;1.00;;
54561;SDS011;40456;53.358;-1.486;2022-07-23T05:30:24;1.35;;;1.15;;
54561;SDS011;40456;53.358;-1.486;2022-07-23T05:32:49;1.77;;;1.17;;
54561;SDS011;40456;53.358;-1.486;2022-07-23T05:35:15;2.33;;;0.95;;
54561;SDS011;40456;53.358;-1.486;2022-07-23T05:37:40;1.70;;;1.33;;
54561;SDS011;40456;53.358;-1.486;2022-07-23T05:40:07;2.72;;;1.40;;
54561;SDS011;40456;53.358;-1.486;2022-07-23T05:42:35;2.80;;;1.60;;
54561;SDS011;40456;53.358;-1.486;2022-07-23T05:45:04;1.70;;;1.25;;
54561;SDS011;40456;53.358;-1.486;2022-07-23T05:47:41;2.35;;;1.40;;
54561;SDS011;40456;53.358;-1.486;2022-07-23T05:50:10;2.35;;;1.77;;
54561;SDS011;40456;53.358;-1.486;2022-07-23T05:52:36;3.17;;;1.63;;
54561;SDS011;40456;53.358;-1.486;2022-07-23T05:55:02;2.60;;;1.50;;
54561;SDS011;40456;53.358;-1.486;2022-07-23T05:57:27;2.78;;;2.17;;
54561;SDS011;40456;53.358;-1.486;2022-07-23T05:59:53;1.85;;;1.50;;
54561;SDS011;40456;53.358;-1.486;2022-07-23T06:02:18;1.88;;;1.60;;
54561;SDS011;40456;53.358;-1.486;2022-07-23T06:04:44;1.92;;;1.70;;
54561;SDS011;40456;53.358;-1.486;2022-07-23T06:07:10;2.38;;;1.90;;
54561;SDS011;40456;53.358;-1.486;2022-07-23T06:09:36;3.70;;;2.05;;
54561;SDS011;40456;53.358;-1.486;2022-07-23T06:12:01;1.75;;;1.48;;
54561;SDS011;40456;53.358;-1.486;2022-07-23T06:14:27;2.95;;;1.98;;
54561;SDS011;40456;53.358;-1.486;2022-07-23T06:16:52;3.33;;;2.40;;
54561;SDS011;40456;53.358;-1.486;2022-07-23T06:19:17;3.05;;;2.00;;
54561;SDS011;40456;53.358;-1.486;2022-07-23T06:21:43;3.17;;;2.13;;
54561;SDS011;40456;53.358;-1.486;2022-07-23T06:24:08;4.68;;;2.83;;
54561;SDS011;40456;53.358;-1.486;2022-07-23T06:26:34;4.13;;;2.55;;
54561;SDS011;40456;53.358;-1.486;2022-07-23T06:28:59;3.97;;;2.88;;
54561;SDS011;40456;53.358;-1.486;2022-07-23T06:31:24;3.72;;;2.40;;
54561;SDS011;40456;53.358;-1.486;2022-07-23T06:33:50;4.70;;;3.10;;
54561;SDS011;40456;53.358;-1.486;2022-07-23T06:36:15;5.85;;;3.45;;
54561;SDS011;40456;53.358;-1.486;2022-07-23T06:38:41;4.45;;;3.30;;
54561;SDS011;40456;53.358;-1.486;2022-07-23T06:41:06;3.72;;;2.85;;
54561;SDS011;40456;53.358;-1.486;2022-07-23T06:43:32;4.97;;;3.30;;
54561;SDS011;40456;53.358;-1.486;2022-07-23T06:45:57;3.75;;;2.95;;
54561;SDS011;40456;53.358;-1.486;2022-07-23T06:48:23;5.05;;;3.33;;
54561;SDS011;40456;53.358;-1.486;2022-07-23T06:50:48;4.25;;;3.05;;
54561;SDS011;40456;53.358;-1.486;2022-07-23T06:53:13;6.05;;;3.80;;
54561;SDS011;40456;53.358;-1.486;2022-07-23T06:55:39;5.78;;;4.32;;
54561;SDS011;40456;53.358;-1.486;2022-07-23T06:58:05;4.95;;;3.75;;
54561;SDS011;40456;53.358;-1.486;2022-07-23T07:00:30;7.75;;;4.40;;
54561;SDS011;40456;53.358;-1.486;2022-07-23T07:02:57;5.65;;;4.18;;
54561;SDS011;40456;53.358;-1.486;2022-07-23T07:05:23;9.55;;;3.63;;
54561;SDS011;40456;53.358;-1.486;2022-07-23T07:07:52;7.50;;;4.57;;
54561;SDS011;40456;53.358;-1.486;2022-07-23T07:10:19;8.02;;;4.18;;
54561;SDS011;40456;53.358;-1.486;2022-07-23T07:12:44;7.70;;;4.68;;
54561;SDS011;40456;53.358;-1.486;2022-07-23T07:15:09;6.20;;;4.25;;
54561;SDS011;40456;53.358;-1.486;2022-07-23T07:17:36;6.75;;;4.45;;
54561;SDS011;40456;53.358;-1.486;2022-07-23T07:20:02;6.07;;;4.28;;
54561;SDS011;40456;53.358;-1.486;2022-07-23T07:22:27;7.15;;;4.32;;
54561;SDS011;40456;53.358;-1.486;2022-07-23T07:24:53;6.72;;;4.40;;
54561;SDS011;40456;53.358;-1.486;2022-07-23T07:27:18;5.47;;;3.88;;
54561;SDS011;40456;53.358;-1.486;2022-07-23T07:29:43;6.82;;;3.92;;
54561;SDS011;40456;53.358;-1.486;2022-07-23T07:32:09;4.53;;;3.85;;
54561;SDS011;40456;53.358;-1.486;2022-07-23T07:34:34;5.82;;;3.88;;
54561;SDS011;40456;53.358;-1.486;2022-07-23T07:37:00;5.43;;;3.60;;
54561;SDS011;40456;53.358;-1.486;2022-07-23T07:39:25;4.95;;;3.22;;
54561;SDS011;40456;53.358;-1.486;2022-07-23T07:41:51;4.45;;;3.63;;
54561;SDS011;40456;53.358;-1.486;2022-07-23T07:44:16;5.47;;;3.50;;
54561;SDS011;40456;53.358;-1.486;2022-07-23T07:46:42;5.32;;;3.65;;
54561;SDS011;40456;53.358;-1.486;2022-07-23T07:49:07;5.38;;;3.50;;
54561;SDS011;40456;53.358;-1.486;2022-07-23T07:51:33;5.30;;;4.03;;
54561;SDS011;40456;53.358;-1.486;2022-07-23T07:53:58;4.78;;;3.55;;
54561;SDS011;40456;53.358;-1.486;2022-07-23T07:56:24;4.45;;;3.45;;
54561;SDS011;40456;53.358;-1.486;2022-07-23T07:58:49;4.60;;;3.53;;
54561;SDS011;40456;53.358;-1.486;2022-07-23T08:01:14;4.72;;;3.58;;
54561;SDS011;40456;53.358;-1.486;2022-07-23T08:03:40;5.85;;;4.20;;
54561;SDS011;40456;53.358;-1.486;2022-07-23T08:06:05;4.40;;;3.42;;
54561;SDS011;40456;53.358;-1.486;2022-07-23T08:08:31;6.28;;;3.78;;
54561;SDS011;40456;53.358;-1.486;2022-07-23T08:10:56;4.10;;;3.33;;
54561;SDS011;40456;53.358;-1.486;2022-07-23T08:13:22;4.60;;;3.53;;
54561;SDS011;40456;53.358;-1.486;2022-07-23T08:15:47;4.95;;;3.47;;
54561;SDS011;40456;53.358;-1.486;2022-07-23T08:18:13;5.85;;;3.67;;
54561;SDS011;40456;53.358;-1.486;2022-07-23T08:20:38;6.90;;;4.18;;
54561;SDS011;40456;53.358;-1.486;2022-07-23T08:23:05;4.88;;;3.92;;
54561;SDS011;40456;53.358;-1.486;2022-07-23T08:25:32;4.25;;;3.45;;
54561;SDS011;40456;53.358;-1.486;2022-07-23T08:28:03;5.32;;;3.95;;
54561;SDS011;40456;53.358;-1.486;2022-07-23T08:30:31;5.47;;;4.28;;
54561;SDS011;40456;53.358;-1.486;2022-07-23T08:33:18;3.65;;;3.22;;
54561;SDS011;40456;53.358;-1.486;2022-07-23T08:35:44;9.77;;;3.95;;
54561;SDS011;40456;53.358;-1.486;2022-07-23T08:38:11;5.30;;;3.17;;
54561;SDS011;40456;53.358;-1.486;2022-07-23T08:40:40;4.40;;;3.45;;
54561;SDS011;40456;53.358;-1.486;2022-07-23T08:43:08;4.45;;;3.20;;
54561;SDS011;40456;53.358;-1.486;2022-07-23T08:45:36;4.13;;;2.90;;
54561;SDS011;40456;53.358;-1.486;2022-07-23T08:48:04;5.35;;;3.05;;
54561;SDS011;40456;53.358;-1.486;2022-07-23T08:50:32;5.25;;;2.78;;
54561;SDS011;40456;53.358;-1.486;2022-07-23T08:53:01;3.38;;;2.60;;
54561;SDS011;40456;53.358;-1.486;2022-07-23T08:55:28;3.20;;;2.60;;
54561;SDS011;40456;53.358;-1.486;2022-07-23T08:57:53;3.83;;;2.55;;
54561;SDS011;40456;53.358;-1.486;2022-07-23T09:00:20;3.10;;;2.75;;
54561;SDS011;40456;53.358;-1.486;2022-07-23T09:02:46;2.67;;;2.28;;
54561;SDS011;40456;53.358;-1.486;2022-07-23T09:05:13;3.05;;;2.30;;
54561;SDS011;40456;53.358;-1.486;2022-07-23T09:08:02;2.80;;;2.33;;
54561;SDS011;40456;53.358;-1.486;2022-07-23T09:16:01;2.45;;;2.25;;
54561;SDS011;40456;53.358;-1.486;2022-07-23T09:18:34;2.92;;;2.47;;
54561;SDS011;40456;53.358;-1.486;2022-07-23T09:23:52;3.33;;;2.72;;
54561;SDS011;40456;53.358;-1.486;2022-07-23T09:26:26;3.00;;;2.30;;
54561;SDS011;40456;53.358;-1.486;2022-07-23T09:29:07;2.60;;;2.40;;
54561;SDS011;40456;53.358;-1.486;2022-07-23T09:34:18;3.33;;;2.00;;
54561;SDS011;40456;53.358;-1.486;2022-07-23T09:36:47;4.00;;;2.33;;
54561;SDS011;40456;53.358;-1.486;2022-07-23T09:39:14;2.70;;;2.08;;
54561;SDS011;40456;53.358;-1.486;2022-07-23T09:41:44;2.58;;;2.30;;
54561;SDS011;40456;53.358;-1.486;2022-07-23T09:44:15;3.10;;;2.10;;
54561;SDS011;40456;53.358;-1.486;2022-07-23T09:46:41;2.00;;;1.75;;
54561;SDS011;40456;53.358;-1.486;2022-07-23T09:49:15;3.90;;;2.63;;
54561;SDS011;40456;53.358;-1.486;2022-07-23T09:51:46;2.55;;;2.35;;
54561;SDS011;40456;53.358;-1.486;2022-07-23T09:56:52;2.20;;;1.95;;
54561;SDS011;40456;53.358;-1.486;2022-07-23T09:59:18;2.67;;;2.05;;
54561;SDS011;40456;53.358;-1.486;2022-07-23T10:01:44;3.42;;;2.33;;
54561;SDS011;40456;53.358;-1.486;2022-07-23T10:04:10;2.25;;;1.70;;
54561;SDS011;40456;53.358;-1.486;2022-07-23T10:06:37;2.05;;;1.85;;
54561;SDS011;40456;53.358;-1.486;2022-07-23T10:09:04;2.75;;;2.10;;
54561;SDS011;40456;53.358;-1.486;2022-07-23T10:11:29;2.35;;;2.10;;
54561;SDS011;40456;53.358;-1.486;2022-07-23T10:13:55;3.17;;;2.28;;
54561;SDS011;40456;53.358;-1.486;2022-07-23T10:16:23;3.30;;;1.90;;
54561;SDS011;40456;53.358;-1.486;2022-07-23T10:18:49;2.38;;;1.88;;
54561;SDS011;40456;53.358;-1.486;2022-07-23T10:21:25;3.45;;;2.05;;
54561;SDS011;40456;53.358;-1.486;2022-07-23T10:34:55;2.38;;;2.10;;
54561;SDS011;40456;53.358;-1.486;2022-07-23T10:37:36;2.13;;;1.92;;
54561;SDS011;40456;53.358;-1.486;2022-07-23T10:40:38;2.38;;;1.67;;
54561;SDS011;40456;53.358;-1.486;2022-07-23T10:42:58;2.22;;;1.73;;
54561;SDS011;40456;53.358;-1.486;2022-07-23T10:45:28;1.85;;;1.70;;
54561;SDS011;40456;53.358;-1.486;2022-07-23T10:47:56;4.30;;;1.70;;
54561;SDS011;40456;53.358;-1.486;2022-07-23T10:51:09;2.50;;;1.60;;
54561;SDS011;40456;53.358;-1.486;2022-07-23T10:59:19;2.72;;;1.92;;
54561;SDS011;40456;53.358;-1.486;2022-07-23T11:01:45;2.38;;;2.00;;
54561;SDS011;40456;53.358;-1.486;2022-07-23T11:04:10;2.70;;;1.85;;
54561;SDS011;40456;53.358;-1.486;2022-07-23T11:11:49;2.28;;;1.63;;
54561;SDS011;40456;53.358;-1.486;2022-07-23T11:14:15;2.30;;;2.10;;
54561;SDS011;40456;53.358;-1.486;2022-07-23T11:16:47;2.72;;;1.50;;
54561;SDS011;40456;53.358;-1.486;2022-07-23T11:19:13;2.47;;;1.92;;
54561;SDS011;40456;53.358;-1.486;2022-07-23T11:24:11;2.17;;;1.33;;
54561;SDS011;40456;53.358;-1.486;2022-07-23T11:34:40;1.98;;;1.58;;
54561;SDS011;40456;53.358;-1.486;2022-07-23T11:37:07;2.15;;;1.50;;
54561;SDS011;40456;53.358;-1.486;2022-07-23T11:39:37;1.88;;;1.70;;
54561;SDS011;40456;53.358;-1.486;2022-07-23T11:42:03;2.53;;;1.55;;
54561;SDS011;40456;53.358;-1.486;2022-07-23T11:44:34;2.58;;;1.75;;
54561;SDS011;40456;53.358;-1.486;2022-07-23T11:47:04;1.63;;;1.40;;
54561;SDS011;40456;53.358;-1.486;2022-07-23T11:49:31;1.63;;;1.52;;
54561;SDS011;40456;53.358;-1.486;2022-07-23T11:52:10;1.70;;;1.58;;
54561;SDS011;40456;53.358;-1.486;2022-07-23T11:54:49;1.17;;;1.08;;
54561;SDS011;40456;53.358;-1.486;2022-07-23T11:57:19;2.58;;;1.40;;
54561;SDS011;40456;53.358;-1.486;2022-07-23T11:59:47;2.03;;;1.50;;
54561;SDS011;40456;53.358;-1.486;2022-07-23T12:02:16;2.25;;;1.60;;
54561;SDS011;40456;53.358;-1.486;2022-07-23T12:04:45;2.75;;;1.20;;
54561;SDS011;40456;53.358;-1.486;2022-07-23T12:07:34;1.50;;;1.33;;
54561;SDS011;40456;53.358;-1.486;2022-07-23T12:10:08;1.38;;;1.27;;
54561;SDS011;40456;53.358;-1.486;2022-07-23T12:12:37;1.70;;;1.10;;
54561;SDS011;40456;53.358;-1.486;2022-07-23T12:15:13;1.25;;;1.15;;
54561;SDS011;40456;53.358;-1.486;2022-07-23T12:17:42;2.17;;;1.33;;
54561;SDS011;40456;53.358;-1.486;2022-07-23T12:20:12;1.05;;;0.88;;
54561;SDS011;40456;53.358;-1.486;2022-07-23T12:22:46;2.85;;;1.27;;
54561;SDS011;40456;53.358;-1.486;2022-07-23T12:25:13;2.28;;;1.25;;
54561;SDS011;40456;53.358;-1.486;2022-07-23T12:27:40;2.05;;;1.02;;
54561;SDS011;40456;53.358;-1.486;2022-07-23T12:30:17;1.90;;;0.80;;
54561;SDS011;40456;53.358;-1.486;2022-07-23T12:32:51;1.15;;;0.85;;
54561;SDS011;40456;53.358;-1.486;2022-07-23T12:35:18;0.82;;;0.82;;
54561;SDS011;40456;53.358;-1.486;2022-07-23T12:37:45;2.20;;;1.08;;
54561;SDS011;40456;53.358;-1.486;2022-07-23T12:40:25;1.38;;;1.15;;
54561;SDS011;40456;53.358;-1.486;2022-07-23T12:42:59;1.58;;;1.08;;
54561;SDS011;40456;53.358;-1.486;2022-07-23T12:45:28;1.65;;;1.55;;
54561;SDS011;40456;53.358;-1.486;2022-07-23T12:48:07;3.97;;;1.10;;
54561;SDS011;40456;53.358;-1.486;2022-07-23T12:50:33;1.58;;;1.23;;
54561;SDS011;40456;53.358;-1.486;2022-07-23T12:55:40;1.33;;;1.10;;
54561;SDS011;40456;53.358;-1.486;2022-07-23T12:58:07;0.98;;;0.95;;
54561;SDS011;40456;53.358;-1.486;2022-07-23T13:00:53;1.13;;;1.02;;
54561;SDS011;40456;53.358;-1.486;2022-07-23T13:03:24;1.42;;;1.23;;
54561;SDS011;40456;53.358;-1.486;2022-07-23T13:05:52;1.10;;;1.00;;
54561;SDS011;40456;53.358;-1.486;2022-07-23T13:08:17;0.55;;;0.55;;
54561;SDS011;40456;53.358;-1.486;2022-07-23T13:10:43;0.93;;;0.88;;
54561;SDS011;40456;53.358;-1.486;2022-07-23T13:13:12;0.90;;;0.73;;
54561;SDS011;40456;53.358;-1.486;2022-07-23T13:15:37;0.70;;;0.70;;
54561;SDS011;40456;53.358;-1.486;2022-07-23T13:18:03;1.80;;;0.88;;
54561;SDS011;40456;53.358;-1.486;2022-07-23T13:20:28;0.80;;;0.80;;
54561;SDS011;40456;53.358;-1.486;2022-07-23T13:22:54;0.98;;;0.70;;
54561;SDS011;40456;53.358;-1.486;2022-07-23T13:25:20;0.70;;;0.63;;
54561;SDS011;40456;53.358;-1.486;2022-07-23T13:27:45;0.57;;;0.57;;
54561;SDS011;40456;53.358;-1.486;2022-07-23T13:30:11;0.75;;;0.70;;
54561;SDS011;40456;53.358;-1.486;2022-07-23T13:32:36;0.70;;;0.63;;
54561;SDS011;40456;53.358;-1.486;2022-07-23T13:35:02;0.60;;;0.60;;
54561;SDS011;40456;53.358;-1.486;2022-07-23T13:37:28;0.80;;;0.60;;
54561;SDS011;40456;53.358;-1.486;2022-07-23T13:39:54;0.70;;;0.70;;
54561;SDS011;40456;53.358;-1.486;2022-07-23T13:42:19;0.65;;;0.65;;
54561;SDS011;40456;53.358;-1.486;2022-07-23T13:44:45;1.38;;;0.50;;
54561;SDS011;40456;53.358;-1.486;2022-07-23T13:47:10;0.73;;;0.68;;
54561;SDS011;40456;53.358;-1.486;2022-07-23T13:49:36;0.77;;;0.70;;
54561;SDS011;40456;53.358;-1.486;2022-07-23T13:52:02;0.63;;;0.63;;
54561;SDS011;40456;53.358;-1.486;2022-07-23T13:54:28;0.82;;;0.63;;
54561;SDS011;40456;53.358;-1.486;2022-07-23T13:56:54;0.50;;;0.50;;
54561;SDS011;40456;53.358;-1.486;2022-07-23T13:59:19;0.50;;;0.50;;
54561;SDS011;40456;53.358;-1.486;2022-07-23T14:01:45;0.50;;;0.50;;
54561;SDS011;40456;53.358;-1.486;2022-07-23T14:04:10;0.60;;;0.60;;
54561;SDS011;40456;53.358;-1.486;2022-07-23T14:06:36;0.63;;;0.63;;
54561;SDS011;40456;53.358;-1.486;2022-07-23T14:09:01;0.70;;;0.60;;
54561;SDS011;40456;53.358;-1.486;2022-07-23T14:11:27;0.75;;;0.57;;
54561;SDS011;40456;53.358;-1.486;2022-07-23T14:13:53;0.60;;;0.60;;
54561;SDS011;40456;53.358;-1.486;2022-07-23T14:16:18;0.75;;;0.70;;
54561;SDS011;40456;53.358;-1.486;2022-07-23T14:18:43;1.85;;;0.60;;
54561;SDS011;40456;53.358;-1.486;2022-07-23T14:21:09;0.60;;;0.60;;
54561;SDS011;40456;53.358;-1.486;2022-07-23T14:23:34;0.82;;;0.80;;
54561;SDS011;40456;53.358;-1.486;2022-07-23T14:26:00;0.65;;;0.60;;
54561;SDS011;40456;53.358;-1.486;2022-07-23T14:28:26;0.85;;;0.70;;
54561;SDS011;40456;53.358;-1.486;2022-07-23T14:30:52;0.88;;;0.80;;
54561;SDS011;40456;53.358;-1.486;2022-07-23T14:33:19;1.20;;;0.70;;
54561;SDS011;40456;53.358;-1.486;2022-07-23T14:35:45;0.75;;;0.60;;
54561;SDS011;40456;53.358;-1.486;2022-07-23T14:38:11;1.10;;;0.88;;
54561;SDS011;40456;53.358;-1.486;2022-07-23T14:40:36;0.68;;;0.60;;
54561;SDS011;40456;53.358;-1.486;2022-07-23T14:43:02;0.80;;;0.60;;
54561;SDS011;40456;53.358;-1.486;2022-07-23T14:45:27;0.70;;;0.70;;
54561;SDS011;40456;53.358;-1.486;2022-07-23T14:47:55;1.50;;;0.88;;
54561;SDS011;40456;53.358;-1.486;2022-07-23T14:50:20;1.00;;;0.90;;
54561;SDS011;40456;53.358;-1.486;2022-07-23T14:52:46;0.95;;;0.85;;
54561;SDS011;40456;53.358;-1.486;2022-07-23T14:55:11;1.20;;;0.90;;
54561;SDS011;40456;53.358;-1.486;2022-07-23T14:57:37;0.70;;;0.70;;
54561;SDS011;40456;53.358;-1.486;2022-07-23T15:00:05;0.95;;;0.80;;
54561;SDS011;40456;53.358;-1.486;2022-07-23T15:02:31;0.75;;;0.75;;
54561;SDS011;40456;53.358;-1.486;2022-07-23T15:04:57;0.82;;;0.82;;
54561;SDS011;40456;53.358;-1.486;2022-07-23T15:07:26;1.10;;;1.00;;
54561;SDS011;40456;53.358;-1.486;2022-07-23T15:09:52;1.15;;;0.90;;
54561;SDS011;40456;53.358;-1.486;2022-07-23T15:12:17;1.00;;;0.90;;
54561;SDS011;40456;53.358;-1.486;2022-07-23T15:14:42;0.77;;;0.77;;
54561;SDS011;40456;53.358;-1.486;2022-07-23T15:17:09;0.80;;;0.80;;
54561;SDS011;40456;53.358;-1.486;2022-07-23T15:19:35;1.73;;;1.25;;